Time;durP1;ratioP1;P1;durP2;ratioP2;P2;SDS_P1;SDS_P2;PMS_P1;PMS_P2;Temp;Humidity;BMP_temperature;BMP_pressure;BME280_temperature;BME280_humidity;BME280_pressure;Samples;Min_cycle;Max_cycle;Signal;HPM_P1;HPM_P2
2022/05/03 00:00:41;;;;;;;3.58;2.25;;;;;;;;;;338248;157;858938;-55
2022/05/03 00:01:54;;;;;;;4.21;2.96;;;;;;;;;;341660;157;857209;-54
2022/05/03 00:03:03;;;;;;;6.24;3.08;;;;;;;;;;341358;157;857684;-55
2022/05/03 00:04:12;;;;;;;5.19;3.12;;;;;;;;;;340909;157;857323;-55
2022/05/03 00:05:19;;;;;;;7.46;3.14;;;;;;;;;;342370;157;857320;-55
2022/05/03 00:06:25;;;;;;;3.85;2.94;;;;;;;;;;338592;157;857863;-54
2022/05/03 00:07:27;;;;;;;6.09;3.05;;;;;;;;;;342561;157;858655;-55
2022/05/03 00:08:33;;;;;;;5.57;2.83;;;;;;;;;;342648;157;857677;-55
2022/05/03 00:09:39;;;;;;;3.62;2.78;;;;;;;;;;341528;157;857162;-53
2022/05/03 00:10:51;;;;;;;6.71;3.14;;;;;;;;;;341532;157;857951;-54
2022/05/03 00:12:03;;;;;;;6.95;2.57;;;;;;;;;;341408;157;858862;-53
2022/05/03 00:13:09;;;;;;;7.27;2.86;;;;;;;;;;341572;157;858488;-54
2022/05/03 00:14:21;;;;;;;5.22;3.23;;;;;;;;;;341712;154;858527;-54
2022/05/03 00:15:22;;;;;;;4.34;2.77;;;;;;;;;;335875;160;859009;-54
2022/05/03 00:16:24;;;;;;;5.60;2.86;;;;;;;;;;331202;159;857109;-54
2022/05/03 00:17:26;;;;;;;9.51;3.11;;;;;;;;;;338830;159;866550;-55
2022/05/03 00:18:27;;;;;;;3.92;2.44;;;;;;;;;;342414;157;865552;-55
2022/05/03 00:19:29;;;;;;;8.26;3.34;;;;;;;;;;335867;160;858046;-54
2022/05/03 00:20:30;;;;;;;2.29;1.39;;;;;;;;;;336818;157;857756;-55
2022/05/03 00:21:33;;;;;;;4.34;2.11;;;;;;;;;;341731;157;864576;-54
2022/05/03 00:22:34;;;;;;;5.02;2.01;;;;;;;;;;341646;157;859081;-55
2022/05/03 00:23:36;;;;;;;3.21;1.84;;;;;;;;;;341766;157;858236;-55
2022/05/03 00:24:37;;;;;;;3.40;1.76;;;;;;;;;;341750;157;865755;-54
2022/05/03 00:25:39;;;;;;;2.52;1.73;;;;;;;;;;338636;157;859394;-54
2022/05/03 00:26:41;;;;;;;4.03;2.11;;;;;;;;;;338210;157;859218;-54
2022/05/03 00:27:42;;;;;;;4.29;2.63;;;;;;;;;;350559;142;865501;-54
2022/05/03 00:28:44;;;;;;;5.81;2.62;;;;;;;;;;350753;152;859092;-54
2022/05/03 00:29:45;;;;;;;7.02;2.54;;;;;;;;;;346865;152;858144;-54
2022/05/03 00:30:48;;;;;;;4.95;3.01;;;;;;;;;;346822;152;857099;-54
2022/05/03 00:31:50;;;;;;;5.63;3.49;;;;;;;;;;346664;155;864719;-54
2022/05/03 00:32:51;;;;;;;3.37;2.61;;;;;;;;;;340403;157;860105;-54
2022/05/03 00:33:53;;;;;;;5.28;3.15;;;;;;;;;;340401;158;857375;-55
2022/05/03 00:34:58;;;;;;;4.43;2.50;;;;;;;;;;347625;154;857108;-54
2022/05/03 00:37:03;;;;;;;4.45;2.63;;;;;;;;;;349796;152;860199;-56
2022/05/03 00:38:05;;;;;;;4.66;2.52;;;;;;;;;;353079;152;857257;-56
2022/05/03 00:39:07;;;;;;;4.11;2.59;;;;;;;;;;353029;152;859094;-55
2022/05/03 00:40:11;;;;;;;3.88;2.61;;;;;;;;;;350259;152;864688;-53
2022/05/03 00:41:17;;;;;;;4.16;2.71;;;;;;;;;;349148;154;857745;-55
2022/05/03 00:42:23;;;;;;;5.01;2.66;;;;;;;;;;348562;154;857303;-54
2022/05/03 00:43:32;;;;;;;4.67;2.81;;;;;;;;;;340788;158;857472;-55
2022/05/03 00:45:00;;;;;;;7.03;2.62;;;;;;;;;;344510;154;858353;-55
2022/05/03 00:46:03;;;;;;;5.84;2.82;;;;;;;;;;346656;155;857132;-53
2022/05/03 00:47:06;;;;;;;2.68;1.75;;;;;;;;;;347086;144;857474;-54
2022/05/03 00:48:22;;;;;;;2.69;1.95;;;;;;;;;;347251;154;857270;-54
2022/05/03 00:49:29;;;;;;;2.91;2.04;;;;;;;;;;347221;155;858170;-54
2022/05/03 00:50:40;;;;;;;3.84;2.13;;;;;;;;;;339989;158;857174;-54
2022/05/03 00:51:45;;;;;;;5.22;1.96;;;;;;;;;;347247;155;857335;-56
2022/05/03 00:52:55;;;;;;;3.74;1.87;;;;;;;;;;347231;155;860171;-53
2022/05/03 00:54:07;;;;;;;2.17;1.68;;;;;;;;;;347142;155;859299;-54
2022/05/03 00:55:11;;;;;;;3.89;2.48;;;;;;;;;;346972;154;857164;-52
2022/05/03 00:56:15;;;;;;;8.14;2.68;;;;;;;;;;347217;155;857189;-54
2022/05/03 00:57:25;;;;;;;5.93;2.99;;;;;;;;;;347140;154;859462;-54
2022/05/03 00:58:28;;;;;;;3.74;2.69;;;;;;;;;;347056;153;857224;-54
2022/05/03 00:59:31;;;;;;;6.80;2.54;;;;;;;;;;345282;154;857260;-54
2022/05/03 01:00:34;;;;;;;7.49;2.85;;;;;;;;;;343989;156;858295;-55
2022/05/03 01:01:38;;;;;;;6.78;2.60;;;;;;;;;;342657;156;858210;-54
2022/05/03 01:02:42;;;;;;;4.97;2.76;;;;;;;;;;338604;158;859390;-55
2022/05/03 01:03:54;;;;;;;6.33;2.58;;;;;;;;;;340182;155;859139;-55
2022/05/03 01:05:10;;;;;;;4.10;2.50;;;;;;;;;;340982;157;857904;-54
2022/05/03 01:06:14;;;;;;;5.88;2.87;;;;;;;;;;344394;155;858859;-53
2022/05/03 01:07:17;;;;;;;3.97;2.87;;;;;;;;;;345962;155;858397;-54
2022/05/03 01:08:29;;;;;;;5.24;2.58;;;;;;;;;;346116;155;859065;-54
2022/05/03 01:09:32;;;;;;;5.57;2.57;;;;;;;;;;346011;155;857677;-54
2022/05/03 01:10:35;;;;;;;5.16;3.10;;;;;;;;;;346064;155;859463;-54
2022/05/03 01:11:39;;;;;;;4.68;2.84;;;;;;;;;;348294;143;855965;-54
2022/05/03 01:12:59;;;;;;;7.66;3.25;;;;;;;;;;348981;154;857441;-55
2022/05/03 01:14:19;;;;;;;4.90;3.30;;;;;;;;;;348616;154;858598;-54
2022/05/03 01:15:26;;;;;;;4.46;2.62;;;;;;;;;;348908;154;865296;-55
2022/05/03 01:16:35;;;;;;;3.50;2.18;;;;;;;;;;348530;154;858171;-54
2022/05/03 01:17:48;;;;;;;4.22;2.06;;;;;;;;;;343064;154;857449;-54
2022/05/03 01:18:56;;;;;;;4.38;2.48;;;;;;;;;;348888;154;857319;-54
2022/05/03 01:20:03;;;;;;;3.96;2.19;;;;;;;;;;348597;154;857129;-54
2022/05/03 01:21:24;;;;;;;3.98;2.39;;;;;;;;;;348285;154;857208;-54
2022/05/03 01:22:25;;;;;;;;;;;;;;;;;;347992;154;857562;-54
2022/05/03 01:23:46;;;;;;;5.13;2.91;;;;;;;;;;344377;154;857299;-54
2022/05/03 01:25:06;;;;;;;4.35;2.71;;;;;;;;;;348227;153;859659;-54
2022/05/03 01:26:27;;;;;;;5.39;2.87;;;;;;;;;;347334;154;866480;-54
2022/05/03 01:27:30;;;;;;;5.23;2.89;;;;;;;;;;342887;154;857547;-54
2022/05/03 01:28:34;;;;;;;5.50;2.71;;;;;;;;;;342526;156;860258;-54
2022/05/03 01:29:35;;;;;;;4.89;2.62;;;;;;;;;;342717;156;860160;-54
2022/05/03 01:30:37;;;;;;;4.66;2.60;;;;;;;;;;342930;156;859049;-55
2022/05/03 01:31:39;;;;;;;4.32;2.54;;;;;;;;;;342838;156;866243;-54
2022/05/03 01:32:43;;;;;;;3.94;2.85;;;;;;;;;;342918;157;857590;-54
2022/05/03 01:33:48;;;;;;;7.94;2.86;;;;;;;;;;342730;157;866483;-54
2022/05/03 01:34:49;;;;;;;3.95;2.68;;;;;;;;;;344956;154;858450;-54
2022/05/03 01:35:51;;;;;;;5.44;2.86;;;;;;;;;;348480;154;864840;-54
2022/05/03 01:36:56;;;;;;;6.11;3.02;;;;;;;;;;343880;154;865217;-54
2022/05/03 01:37:59;;;;;;;7.65;3.14;;;;;;;;;;351440;153;859798;-54
2022/05/03 01:39:05;;;;;;;4.69;2.94;;;;;;;;;;351961;152;858161;-54
2022/05/03 01:40:07;;;;;;;6.39;2.81;;;;;;;;;;347584;153;859245;-52
2022/05/03 01:41:18;;;;;;;4.76;2.63;;;;;;;;;;348856;154;859438;-54
2022/05/03 01:42:25;;;;;;;3.74;2.18;;;;;;;;;;345213;154;856336;-55
2022/05/03 01:43:43;;;;;;;4.37;2.23;;;;;;;;;;333235;161;859451;-54
2022/05/03 01:44:50;;;;;;;7.31;2.82;;;;;;;;;;342594;157;857733;-53
2022/05/03 01:46:11;;;;;;;5.57;2.58;;;;;;;;;;342653;157;858079;-54
2022/05/03 01:47:20;;;;;;;5.70;2.67;;;;;;;;;;342939;154;859759;-55
2022/05/03 01:50:18;;;;;;;2.78;1.96;;;;;;;;;;346930;154;860321;-54
2022/05/03 01:51:11;;;;;;;9.92;3.09;;;;;;;;;;348696;154;857803;-54
2022/05/03 01:52:31;;;;;;;5.96;2.77;;;;;;;;;;348687;154;857765;-54
2022/05/03 01:53:34;;;;;;;5.08;2.76;;;;;;;;;;338834;159;865439;-54
2022/05/03 01:54:54;;;;;;;6.80;3.05;;;;;;;;;;344341;154;867839;-54
2022/05/03 01:56:06;;;;;;;6.11;2.97;;;;;;;;;;347029;154;865627;-53
2022/05/03 01:57:10;;;;;;;3.50;2.62;;;;;;;;;;342846;154;858092;-53
2022/05/03 01:58:30;;;;;;;4.65;2.64;;;;;;;;;;342974;154;857305;-54
2022/05/03 01:59:50;;;;;;;4.62;2.84;;;;;;;;;;345937;154;858700;-54
2022/05/03 02:01:00;;;;;;;5.11;3.01;;;;;;;;;;348842;154;859026;-54
2022/05/03 02:02:09;;;;;;;4.16;2.88;;;;;;;;;;348808;154;858372;-54
2022/05/03 02:03:15;;;;;;;5.97;2.87;;;;;;;;;;348640;154;858117;-54
2022/05/03 02:04:31;;;;;;;5.22;2.74;;;;;;;;;;344656;154;859440;-54
2022/05/03 02:05:53;;;;;;;6.70;2.59;;;;;;;;;;342648;157;857210;-54
2022/05/03 02:06:59;;;;;;;5.63;3.25;;;;;;;;;;342691;154;857653;-54
2022/05/03 02:08:01;;;;;;;5.01;2.60;;;;;;;;;;342576;154;859116;-54
2022/05/03 02:09:03;;;;;;;5.09;2.33;;;;;;;;;;342936;154;858110;-54
2022/05/03 02:10:07;;;;;;;3.59;1.86;;;;;;;;;;342922;154;860187;-53
2022/05/03 02:11:11;;;;;;;4.94;2.21;;;;;;;;;;328534;157;864717;-53
2022/05/03 02:12:13;;;;;;;4.04;2.31;;;;;;;;;;345361;154;857762;-53
2022/05/03 02:14:43;;;;;;;3.94;2.12;;;;;;;;;;348928;154;859204;-53
2022/05/03 02:14:47;;;;;;;2.82;1.97;;;;;;;;;;347188;154;857147;-53
2022/05/03 02:15:49;;;;;;;2.96;1.91;;;;;;;;;;348850;154;858568;-56
2022/05/03 02:17:01;;;;;;;6.15;2.89;;;;;;;;;;353079;151;858137;-55
2022/05/03 02:18:07;;;;;;;4.40;2.73;;;;;;;;;;347174;154;857210;-54
2022/05/03 02:19:26;;;;;;;10.32;3.56;;;;;;;;;;343996;154;857368;-55
2022/05/03 02:20:29;;;;;;;4.94;3.02;;;;;;;;;;355095;151;858186;-53
2022/05/03 02:21:33;;;;;;;3.98;2.61;;;;;;;;;;348987;154;857188;-54
2022/05/03 02:22:46;;;;;;;4.70;3.15;;;;;;;;;;351898;151;857180;-54
2022/05/03 02:23:49;;;;;;;4.11;2.61;;;;;;;;;;354834;151;857771;-54
2022/05/03 02:24:53;;;;;;;6.36;3.10;;;;;;;;;;355190;151;857645;-53
2022/05/03 02:25:57;;;;;;;5.83;3.05;;;;;;;;;;350435;151;857074;-55
2022/05/03 02:27:00;;;;;;;5.49;3.16;;;;;;;;;;349028;151;857287;-53
2022/05/03 02:28:13;;;;;;;5.49;3.14;;;;;;;;;;348763;154;858967;-53
2022/05/03 02:29:22;;;;;;;4.77;2.81;;;;;;;;;;348885;151;857167;-54
2022/05/03 02:30:26;;;;;;;5.38;3.00;;;;;;;;;;348796;151;859168;-54
2022/05/03 02:31:46;;;;;;;4.75;2.65;;;;;;;;;;349046;151;857107;-53
2022/05/03 02:32:50;;;;;;;6.47;2.95;;;;;;;;;;348870;151;856442;-54
2022/05/03 02:34:10;;;;;;;6.06;3.01;;;;;;;;;;350273;153;866586;-54
2022/05/03 02:35:13;;;;;;;8.08;3.31;;;;;;;;;;352078;153;858511;-54
2022/05/03 02:36:16;;;;;;;7.98;3.08;;;;;;;;;;349054;151;865319;-54
2022/05/03 02:37:24;;;;;;;6.79;2.39;;;;;;;;;;350159;151;856339;-55
2022/05/03 02:38:39;;;;;;;5.32;2.36;;;;;;;;;;353031;151;857931;-54
2022/05/03 02:39:48;;;;;;;5.09;2.43;;;;;;;;;;350566;151;857176;-54
2022/05/03 02:40:51;;;;;;;5.42;2.69;;;;;;;;;;353701;151;859077;-54
2022/05/03 02:41:57;;;;;;;6.86;2.77;;;;;;;;;;352155;151;858100;-54
2022/05/03 02:42:58;;;;;;;2.79;2.05;;;;;;;;;;354870;151;857653;-54
2022/05/03 02:44:01;;;;;;;4.47;2.22;;;;;;;;;;354265;151;859200;-54
2022/05/03 02:45:03;;;;;;;5.36;3.18;;;;;;;;;;348935;151;859800;-54
2022/05/03 02:46:25;;;;;;;6.68;3.17;;;;;;;;;;348989;151;858936;-54
2022/05/03 02:47:38;;;;;;;4.63;3.06;;;;;;;;;;348337;151;857890;-54
2022/05/03 02:48:44;;;;;;;5.19;2.92;;;;;;;;;;348938;151;859624;-54
2022/05/03 02:49:53;;;;;;;6.26;2.96;;;;;;;;;;349091;153;857832;-54
2022/05/03 02:50:57;;;;;;;8.43;3.32;;;;;;;;;;349360;151;858991;-54
2022/05/03 02:52:01;;;;;;;4.74;3.21;;;;;;;;;;348567;154;857151;-54
2022/05/03 02:53:03;;;;;;;5.91;2.88;;;;;;;;;;348593;154;857346;-55
2022/05/03 02:54:06;;;;;;;7.59;3.08;;;;;;;;;;352297;151;857246;-54
2022/05/03 02:55:12;;;;;;;5.13;3.00;;;;;;;;;;354939;151;857137;-54
2022/05/03 02:56:16;;;;;;;6.33;3.11;;;;;;;;;;355080;151;857355;-54
2022/05/03 02:57:26;;;;;;;9.11;3.12;;;;;;;;;;355128;151;857372;-55
2022/05/03 02:58:46;;;;;;;5.98;3.46;;;;;;;;;;355086;151;858057;-54
2022/05/03 03:02:43;;;;;;;5.88;3.29;;;;;;;;;;353093;152;857358;-55
2022/05/03 03:03:50;;;;;;;5.36;3.16;;;;;;;;;;353233;152;859228;-55
2022/05/03 03:05:05;;;;;;;4.26;1.94;;;;;;;;;;351257;153;859177;-54
2022/05/03 03:06:07;;;;;;;5.56;2.31;;;;;;;;;;351856;152;859023;-53
2022/05/03 03:07:10;;;;;;;4.21;2.54;;;;;;;;;;352336;152;858051;-54
2022/05/03 03:08:12;;;;;;;3.86;2.57;;;;;;;;;;352256;152;857406;-54
2022/05/03 03:09:19;;;;;;;4.92;1.93;;;;;;;;;;349562;151;865799;-53
2022/05/03 03:10:22;;;;;;;4.70;2.42;;;;;;;;;;348885;151;857625;-54
2022/05/03 03:11:25;;;;;;;4.06;2.46;;;;;;;;;;349074;151;857304;-54
2022/05/03 03:12:32;;;;;;;4.68;2.50;;;;;;;;;;349263;154;857124;-54
2022/05/03 03:13:38;;;;;;;9.87;2.91;;;;;;;;;;349566;153;857676;-54
2022/05/03 03:14:42;;;;;;;5.89;2.84;;;;;;;;;;353788;148;857857;-54
2022/05/03 03:15:43;;;;;;;6.01;3.37;;;;;;;;;;362713;148;859440;-54
2022/05/03 03:16:53;;;;;;;5.16;2.97;;;;;;;;;;362971;148;856679;-54
2022/05/03 03:17:55;;;;;;;4.32;3.03;;;;;;;;;;362468;148;859997;-54
2022/05/03 03:19:16;;;;;;;6.17;2.99;;;;;;;;;;362917;148;858216;-54
2022/05/03 03:20:18;;;;;;;5.91;3.49;;;;;;;;;;362883;148;856955;-55
2022/05/03 03:21:19;;;;;;;8.29;3.61;;;;;;;;;;362951;148;858962;-55
2022/05/03 03:22:21;;;;;;;4.45;3.31;;;;;;;;;;362852;148;857795;-55
2022/05/03 03:23:26;;;;;;;4.81;2.84;;;;;;;;;;352797;148;864882;-54
2022/05/03 03:24:29;;;;;;;9.11;3.10;;;;;;;;;;351990;153;857693;-54
2022/05/03 03:25:30;;;;;;;8.56;3.41;;;;;;;;;;352638;152;857157;-54
2022/05/03 03:26:32;;;;;;;4.99;3.29;;;;;;;;;;353872;152;865881;-54
2022/05/03 03:27:34;;;;;;;7.04;3.14;;;;;;;;;;353809;152;864859;-56
2022/05/03 03:28:36;;;;;;;5.51;2.67;;;;;;;;;;353912;151;857243;-55
2022/05/03 03:29:38;;;;;;;5.40;2.99;;;;;;;;;;353825;152;864884;-55
2022/05/03 03:30:40;;;;;;;6.26;3.33;;;;;;;;;;353875;151;857308;-55
2022/05/03 03:31:41;;;;;;;5.96;3.02;;;;;;;;;;353842;151;857295;-55
2022/05/03 03:32:53;;;;;;;2.33;1.59;;;;;;;;;;353840;152;856537;-55
2022/05/03 03:33:54;;;;;;;3.05;2.12;;;;;;;;;;355078;151;864576;-57
2022/05/03 03:34:57;;;;;;;6.54;2.34;;;;;;;;;;356215;150;857694;-55
2022/05/03 03:35:58;;;;;;;7.15;2.77;;;;;;;;;;356143;150;857868;-54
2022/05/03 03:37:04;;;;;;;6.99;2.86;;;;;;;;;;356138;150;857184;-55
2022/05/03 03:38:06;;;;;;;5.83;2.49;;;;;;;;;;356012;151;867247;-54
2022/05/03 03:39:07;;;;;;;4.87;2.04;;;;;;;;;;356216;151;857266;-56
2022/05/03 03:40:11;;;;;;;2.93;2.19;;;;;;;;;;354147;150;864837;-55
2022/05/03 03:41:12;;;;;;;4.04;2.77;;;;;;;;;;353830;152;860075;-55
2022/05/03 03:42:14;;;;;;;5.83;2.86;;;;;;;;;;353857;151;858729;-55
2022/05/03 03:43:16;;;;;;;3.78;2.76;;;;;;;;;;353768;152;864928;-55
2022/05/03 03:44:17;;;;;;;5.50;2.63;;;;;;;;;;354816;151;856212;-55
2022/05/03 03:45:19;;;;;;;7.86;3.05;;;;;;;;;;356255;150;857309;-55
2022/05/03 03:46:21;;;;;;;4.13;2.81;;;;;;;;;;356252;150;857533;-55
2022/05/03 03:47:22;;;;;;;6.71;3.21;;;;;;;;;;356142;150;857213;-55
2022/05/03 03:48:24;;;;;;;5.78;2.94;;;;;;;;;;351785;146;864824;-55
2022/05/03 03:49:26;;;;;;;6.06;3.26;;;;;;;;;;368375;145;857168;-54
2022/05/03 03:50:27;;;;;;;10.26;3.21;;;;;;;;;;363305;146;866443;-55
2022/05/03 03:51:29;;;;;;;6.88;3.19;;;;;;;;;;368294;146;857723;-54
2022/05/03 03:52:32;;;;;;;8.50;3.42;;;;;;;;;;367956;146;866524;-54
2022/05/03 03:53:33;;;;;;;4.52;3.33;;;;;;;;;;367976;145;865536;-55
2022/05/03 03:54:35;;;;;;;8.75;3.06;;;;;;;;;;361852;146;858854;-54
2022/05/03 03:55:37;;;;;;;6.91;3.41;;;;;;;;;;361608;146;857657;-53
2022/05/03 03:56:39;;;;;;;8.22;3.77;;;;;;;;;;366485;146;859145;-53
2022/05/03 03:57:40;;;;;;;4.79;2.86;;;;;;;;;;361597;146;865090;-53
2022/05/03 03:58:42;;;;;;;5.11;3.17;;;;;;;;;;361575;146;863785;-53
2022/05/03 03:59:43;;;;;;;7.27;3.42;;;;;;;;;;364374;146;858534;-53
2022/05/03 04:00:46;;;;;;;2.95;2.00;;;;;;;;;;368255;145;858765;-53
2022/05/03 04:01:49;;;;;;;5.70;2.84;;;;;;;;;;365414;146;865412;-53
2022/05/03 04:02:50;;;;;;;3.76;2.56;;;;;;;;;;360997;149;858178;-53
2022/05/03 04:03:52;;;;;;;3.07;1.68;;;;;;;;;;359517;149;858872;-54
2022/05/03 04:04:53;;;;;;;3.92;2.26;;;;;;;;;;354655;149;859371;-54
2022/05/03 04:05:55;;;;;;;3.86;2.45;;;;;;;;;;354727;149;857313;-53
2022/05/03 04:06:57;;;;;;;4.41;2.23;;;;;;;;;;354775;149;857212;-54
2022/05/03 04:07:59;;;;;;;4.63;2.28;;;;;;;;;;354611;149;864857;-54
2022/05/03 04:09:00;;;;;;;4.38;2.78;;;;;;;;;;354724;149;857367;-54
2022/05/03 04:10:02;;;;;;;4.16;2.36;;;;;;;;;;357118;149;857293;-54
2022/05/03 04:11:16;;;;;;;3.62;2.50;;;;;;;;;;358004;147;864982;-53
2022/05/03 04:12:21;;;;;;;5.99;2.94;;;;;;;;;;354493;149;856566;-54
2022/05/03 04:13:22;;;;;;;4.01;2.85;;;;;;;;;;354494;152;859028;-54
2022/05/03 04:14:24;;;;;;;6.33;3.06;;;;;;;;;;354813;149;857935;-54
2022/05/03 04:15:25;;;;;;;5.57;2.81;;;;;;;;;;354661;152;860835;-54
2022/05/03 04:16:27;;;;;;;7.71;2.87;;;;;;;;;;361221;148;858804;-54
2022/05/03 04:17:29;;;;;;;4.94;2.79;;;;;;;;;;354611;152;858647;-54
2022/05/03 04:18:44;;;;;;;4.70;2.58;;;;;;;;;;354845;149;858392;-55
2022/05/03 04:19:35;;;;;;;5.30;2.84;;;;;;;;;;354876;151;857866;-56
2022/05/03 04:20:37;;;;;;;4.84;3.12;;;;;;;;;;360893;149;858872;-54
2022/05/03 04:21:39;;;;;;;4.32;2.77;;;;;;;;;;360958;148;858746;-54
2022/05/03 04:22:40;;;;;;;5.57;2.83;;;;;;;;;;361007;149;860041;-54
2022/05/03 04:23:42;;;;;;;3.75;2.41;;;;;;;;;;361101;148;858886;-54
2022/05/03 04:24:44;;;;;;;3.75;2.65;;;;;;;;;;360867;149;859498;-54
2022/05/03 04:25:45;;;;;;;5.54;2.81;;;;;;;;;;359373;148;858534;-55
2022/05/03 04:26:47;;;;;;;4.80;2.84;;;;;;;;;;354645;149;858247;-56
2022/05/03 04:27:49;;;;;;;5.17;2.56;;;;;;;;;;355702;149;866863;-56
2022/05/03 04:28:50;;;;;;;2.30;1.29;;;;;;;;;;361034;149;857811;-54
2022/05/03 04:29:52;;;;;;;2.94;2.11;;;;;;;;;;361504;148;857254;-55
2022/05/03 04:30:53;;;;;;;2.56;1.66;;;;;;;;;;362420;148;857649;-55
2022/05/03 04:31:55;;;;;;;3.07;2.14;;;;;;;;;;361423;148;864526;-55
2022/05/03 04:32:56;;;;;;;9.92;2.23;;;;;;;;;;354808;149;856994;-55
2022/05/03 04:33:58;;;;;;;3.71;2.20;;;;;;;;;;356821;149;858867;-54
2022/05/03 04:34:59;;;;;;;5.68;2.47;;;;;;;;;;361081;149;858793;-54
2022/05/03 04:36:01;;;;;;;3.19;2.26;;;;;;;;;;361107;148;860242;-54
2022/05/03 04:37:03;;;;;;;7.89;3.31;;;;;;;;;;361004;148;866030;-54
2022/05/03 04:38:04;;;;;;;3.35;2.56;;;;;;;;;;357315;149;858015;-54
2022/05/03 04:39:06;;;;;;;3.88;2.79;;;;;;;;;;354757;149;865104;-54
2022/05/03 04:40:08;;;;;;;4.13;2.69;;;;;;;;;;358133;149;857118;-53
2022/05/03 04:41:10;;;;;;;5.51;2.98;;;;;;;;;;361079;149;857098;-53
2022/05/03 04:42:12;;;;;;;4.89;2.88;;;;;;;;;;361008;148;858482;-54
2022/05/03 04:43:13;;;;;;;6.27;2.81;;;;;;;;;;360969;149;857263;-53
2022/05/03 04:44:15;;;;;;;6.34;2.53;;;;;;;;;;358596;148;860920;-54
2022/05/03 04:45:16;;;;;;;4.16;2.56;;;;;;;;;;354834;149;859580;-53
2022/05/03 04:46:18;;;;;;;5.94;2.82;;;;;;;;;;360511;148;857053;-55
2022/05/03 04:47:20;;;;;;;4.10;2.74;;;;;;;;;;355135;147;857246;-54
2022/05/03 04:48:21;;;;;;;5.83;2.91;;;;;;;;;;358661;149;864821;-54
2022/05/03 04:49:23;;;;;;;6.67;3.29;;;;;;;;;;354850;151;857354;-54
2022/05/03 04:50:25;;;;;;;4.29;2.63;;;;;;;;;;355236;149;864686;-53
2022/05/03 04:51:26;;;;;;;6.69;2.79;;;;;;;;;;355115;151;857116;-54
2022/05/03 04:52:29;;;;;;;5.53;2.04;;;;;;;;;;355235;149;857190;-53
2022/05/03 04:53:31;;;;;;;5.34;2.58;;;;;;;;;;355027;151;857132;-53
2022/05/03 04:54:35;;;;;;;3.58;2.27;;;;;;;;;;355189;149;857771;-54
2022/05/03 04:55:39;;;;;;;3.81;2.19;;;;;;;;;;354992;149;867071;-53
2022/05/03 04:56:43;;;;;;;4.65;2.35;;;;;;;;;;361353;149;858568;-53
2022/05/03 04:57:44;;;;;;;7.21;2.34;;;;;;;;;;360155;149;864763;-53
2022/05/03 04:58:46;;;;;;;6.52;2.61;;;;;;;;;;355168;149;857163;-53
2022/05/03 04:59:48;;;;;;;3.09;1.65;;;;;;;;;;356211;149;857130;-53
2022/05/03 05:00:49;;;;;;;5.61;1.73;;;;;;;;;;362451;148;857066;-53
2022/05/03 05:01:51;;;;;;;2.85;1.82;;;;;;;;;;362029;147;864731;-53
2022/05/03 05:02:53;;;;;;;4.15;2.21;;;;;;;;;;358020;149;864832;-54
2022/05/03 05:03:54;;;;;;;4.15;1.99;;;;;;;;;;361378;144;857732;-56
2022/05/03 05:04:56;;;;;;;6.09;3.40;;;;;;;;;;361225;148;864835;-55
2022/05/03 05:05:57;;;;;;;5.46;2.34;;;;;;;;;;359315;149;864676;-55
2022/05/03 05:06:59;;;;;;;4.35;2.39;;;;;;;;;;349722;151;857238;-53
2022/05/03 05:08:04;;;;;;;4.40;2.89;;;;;;;;;;352751;151;857286;-53
2022/05/03 05:09:06;;;;;;;4.11;2.97;;;;;;;;;;354826;149;858147;-54
2022/05/03 05:10:24;;;;;;;5.53;2.94;;;;;;;;;;354940;149;857714;-54
2022/05/03 05:11:26;;;;;;;4.13;2.85;;;;;;;;;;354740;151;859480;-54
2022/05/03 05:12:28;;;;;;;6.03;2.97;;;;;;;;;;359690;149;857846;-54
2022/05/03 05:13:30;;;;;;;6.89;2.98;;;;;;;;;;354782;151;857235;-54
2022/05/03 05:14:32;;;;;;;5.47;2.72;;;;;;;;;;356072;149;864192;-54
2022/05/03 05:15:33;;;;;;;5.63;3.10;;;;;;;;;;361375;149;858958;-54
2022/05/03 05:16:35;;;;;;;6.31;3.35;;;;;;;;;;361794;148;859066;-55
2022/05/03 05:17:36;;;;;;;4.74;3.04;;;;;;;;;;354956;149;866384;-54
2022/05/03 05:18:38;;;;;;;8.97;2.93;;;;;;;;;;359731;148;858505;-54
2022/05/03 05:19:39;;;;;;;7.54;2.75;;;;;;;;;;354944;149;859432;-55
2022/05/03 05:20:41;;;;;;;5.55;2.76;;;;;;;;;;356914;149;859122;-54
2022/05/03 05:21:43;;;;;;;3.98;2.53;;;;;;;;;;361383;148;865463;-55
2022/05/03 05:22:45;;;;;;;4.16;2.69;;;;;;;;;;361279;149;857946;-54
2022/05/03 05:23:46;;;;;;;7.61;2.62;;;;;;;;;;361374;148;864700;-53
2022/05/03 05:24:47;;;;;;;4.84;2.66;;;;;;;;;;361315;148;864759;-55
2022/05/03 05:25:49;;;;;;;6.77;2.84;;;;;;;;;;357288;148;857278;-54
2022/05/03 05:26:51;;;;;;;4.51;2.53;;;;;;;;;;355112;149;857252;-54
2022/05/03 05:27:52;;;;;;;3.49;2.02;;;;;;;;;;355095;149;857179;-54
2022/05/03 05:28:54;;;;;;;4.51;2.24;;;;;;;;;;355074;149;857173;-54
2022/05/03 05:29:55;;;;;;;4.31;2.78;;;;;;;;;;355140;149;857634;-54
2022/05/03 05:30:57;;;;;;;4.58;2.68;;;;;;;;;;359714;148;857051;-54
2022/05/03 05:31:59;;;;;;;5.52;2.07;;;;;;;;;;360939;147;857329;-54
2022/05/03 05:33:00;;;;;;;3.71;1.95;;;;;;;;;;355094;149;857692;-54
2022/05/03 05:34:02;;;;;;;11.74;2.12;;;;;;;;;;357327;149;857280;-54
2022/05/03 05:35:04;;;;;;;6.18;2.14;;;;;;;;;;357047;148;857386;-54
2022/05/03 05:36:06;;;;;;;4.56;2.32;;;;;;;;;;355107;149;864811;-54
2022/05/03 05:37:08;;;;;;;4.74;2.24;;;;;;;;;;355082;151;858828;-54
2022/05/03 05:38:13;;;;;;;6.33;2.23;;;;;;;;;;355087;151;857694;-54
2022/05/03 05:39:12;;;;;;;4.33;2.41;;;;;;;;;;355060;151;857170;-54
2022/05/03 05:40:14;;;;;;;4.06;2.17;;;;;;;;;;360984;149;858976;-54
2022/05/03 05:41:17;;;;;;;5.60;2.26;;;;;;;;;;361537;148;865736;-54
2022/05/03 05:42:18;;;;;;;3.40;2.39;;;;;;;;;;361339;149;859836;-54
2022/05/03 05:43:20;;;;;;;3.96;2.31;;;;;;;;;;361375;148;866631;-54
2022/05/03 05:44:22;;;;;;;3.78;2.04;;;;;;;;;;361459;148;857542;-54
2022/05/03 05:45:23;;;;;;;4.88;2.82;;;;;;;;;;361397;148;857415;-54
2022/05/03 05:46:25;;;;;;;5.63;2.39;;;;;;;;;;356671;148;858040;-54
2022/05/03 05:47:27;;;;;;;3.01;2.13;;;;;;;;;;355143;149;858516;-54
2022/05/03 05:48:29;;;;;;;6.44;2.41;;;;;;;;;;355673;149;858796;-54
2022/05/03 05:49:30;;;;;;;5.44;2.35;;;;;;;;;;361344;149;857196;-54
2022/05/03 05:50:32;;;;;;;3.91;2.30;;;;;;;;;;360310;149;857241;-54
2022/05/03 05:51:34;;;;;;;4.19;2.28;;;;;;;;;;355055;151;866619;-56
2022/05/03 05:53:56;;;;;;;5.07;2.43;;;;;;;;;;358561;149;857734;-54
2022/05/03 05:54:58;;;;;;;10.55;2.61;;;;;;;;;;355005;149;865148;-54
2022/05/03 05:56:00;;;;;;;4.43;2.44;;;;;;;;;;355158;149;857224;-55
2022/05/03 05:57:02;;;;;;;5.28;2.45;;;;;;;;;;355145;149;859174;-54
2022/05/03 05:58:04;;;;;;;7.83;2.24;;;;;;;;;;357770;149;857331;-54
2022/05/03 05:59:05;;;;;;;7.51;2.23;;;;;;;;;;360085;148;865733;-54
2022/05/03 06:00:08;;;;;;;5.37;2.47;;;;;;;;;;355157;149;857283;-54
2022/05/03 06:01:10;;;;;;;4.07;2.10;;;;;;;;;;355169;149;857165;-53
2022/05/03 06:02:11;;;;;;;4.14;2.20;;;;;;;;;;358594;148;858533;-55
2022/05/03 06:03:14;;;;;;;6.06;2.52;;;;;;;;;;360296;149;857681;-55
2022/05/03 06:04:16;;;;;;;4.36;1.87;;;;;;;;;;352109;151;864893;-54
2022/05/03 06:05:17;;;;;;;4.68;1.95;;;;;;;;;;353162;151;857557;-54
2022/05/03 06:06:19;;;;;;;3.20;1.81;;;;;;;;;;354584;149;856829;-54
2022/05/03 06:07:20;;;;;;;5.59;1.94;;;;;;;;;;361303;149;865250;-54
2022/05/03 06:08:22;;;;;;;3.09;1.51;;;;;;;;;;361142;149;857865;-54
2022/05/03 06:09:24;;;;;;;2.38;1.45;;;;;;;;;;354958;151;857320;-54
2022/05/03 06:10:26;;;;;;;3.32;1.99;;;;;;;;;;355124;149;864878;-53
2022/05/03 06:11:29;;;;;;;2.44;1.67;;;;;;;;;;354933;151;864301;-53
2022/05/03 06:12:31;;;;;;;4.11;2.14;;;;;;;;;;355071;149;857152;-53
2022/05/03 06:13:32;;;;;;;5.91;2.06;;;;;;;;;;354978;151;865558;-53
2022/05/03 06:14:34;;;;;;;2.82;1.70;;;;;;;;;;355144;149;858870;-55
2022/05/03 06:15:35;;;;;;;3.34;1.88;;;;;;;;;;355013;151;858240;-55
2022/05/03 06:16:53;;;;;;;3.46;1.86;;;;;;;;;;363249;148;857558;-54
2022/05/03 06:17:55;;;;;;;8.01;1.88;;;;;;;;;;359409;149;857266;-53
2022/05/03 06:18:56;;;;;;;2.71;1.39;;;;;;;;;;355041;149;857876;-54
2022/05/03 06:19:58;;;;;;;5.38;2.09;;;;;;;;;;354947;149;857722;-52
2022/05/03 06:21:01;;;;;;;3.42;1.94;;;;;;;;;;355005;149;857250;-54
2022/05/03 06:22:03;;;;;;;3.85;2.01;;;;;;;;;;355862;148;857374;-54
2022/05/03 06:23:05;;;;;;;6.41;2.12;;;;;;;;;;358025;144;857324;-55
2022/05/03 06:24:07;;;;;;;4.56;1.96;;;;;;;;;;361202;148;858634;-53
2022/05/03 06:25:09;;;;;;;3.87;1.66;;;;;;;;;;357648;148;864670;-54
2022/05/03 06:26:11;;;;;;;5.96;2.02;;;;;;;;;;357792;148;857778;-54
2022/05/03 06:27:15;;;;;;;2.11;1.89;;;;;;;;;;363329;148;858081;-54
2022/05/03 06:28:18;;;;;;;3.37;2.05;;;;;;;;;;364093;148;859418;-56
2022/05/03 06:29:19;;;;;;;3.10;2.03;;;;;;;;;;364324;146;856866;-55